»·PEaware :: AAL225 KSAN-KSBA

AAL225 :: KSAN-KSBA

FLIGHT INFORMATION

Flight Status: Arrived
Operator:
American Airlines
More flights by this operator :: More flights under this callsign
Pilot: Michael R. (16974)
Aircraft: AIRBUS A320
(A320)
More flights by this aircraft type
Origin: KSAN San Diego Intl-Lindbergh
United States
Destination: KSBA Santa Barbara Mun
United States
More flights between these airports :: More routes between these airports
Route: +CWARD2 CWARD AVOLS V208 VTU VTU282 KWANG
File this flight plan on PilotEdge
Remarks: SANP36R TEC ROUTE
Altitude:
(Current/Filed)
10,000ft
Speed:
(Current/Filed)
240kts
Departed: 01-Sep-18 01:33 PM
Arrived: 01-Sep-18 02:22 PM
Distance/Time
Traveled:
167nm/0:49
Distance/Time
To Go:
Arrived

Flight Plot

Page will automatically refresh every two minutes.

Flight plan parsing failed; only flown route is shown


Map Options




Map Legend


Flown Route
Filed Route
Departure Airport
Arrival Airport
Navaid (VOR, NDB)
Fix

Horizontal Profiles

Position Reports

Time Latitude Longitude Heading Altitude Ground
Speed
01-Sep-18 13:05 32.733753 -117.202052 145 26ft 0kts
01-Sep-18 13:06 32.733753 -117.202052 145 26ft 0kts
01-Sep-18 13:07 32.733753 -117.202052 145 26ft 0kts
01-Sep-18 13:08 32.733753 -117.202052 145 26ft 0kts
01-Sep-18 13:09 32.733753 -117.202052 145 26ft 0kts
01-Sep-18 13:10 32.733753 -117.202052 145 26ft 0kts
01-Sep-18 13:11 32.733753 -117.202052 145 26ft 0kts
01-Sep-18 13:12 32.733753 -117.202052 145 26ft 0kts
01-Sep-18 13:13 32.733753 -117.202052 145 26ft 0kts
01-Sep-18 13:14 32.733753 -117.202052 145 26ft 0kts
01-Sep-18 13:15 32.733753 -117.202052 145 26ft 0kts
01-Sep-18 13:16 32.733753 -117.202052 145 26ft 0kts
01-Sep-18 13:17 32.733753 -117.202052 145 26ft 0kts
01-Sep-18 13:18 32.733753 -117.202052 145 26ft 0kts
01-Sep-18 13:19 32.733753 -117.202052 145 26ft 0kts
01-Sep-18 13:20 32.733753 -117.202052 145 26ft 0kts
01-Sep-18 13:21 32.733753 -117.202052 145 26ft 0kts
01-Sep-18 13:22 32.733753 -117.202052 145 26ft 0kts
01-Sep-18 13:23 32.733753 -117.202052 145 26ft 0kts
01-Sep-18 13:24 32.733753 -117.202052 145 26ft 0kts
01-Sep-18 13:25 32.733753 -117.202052 145 26ft 0kts
01-Sep-18 13:26 32.733753 -117.202052 145 26ft 0kts
01-Sep-18 13:27 32.734055 -117.202304 147 25ft 1kts
01-Sep-18 13:28 32.733987 -117.202732 12 24ft 1kts
01-Sep-18 13:29 32.733958 -117.202741 15 24ft 0kts
01-Sep-18 13:30 32.733958 -117.202741 15 24ft 0kts
01-Sep-18 13:31 32.733958 -117.202741 15 24ft 0kts
01-Sep-18 13:32 32.735410 -117.201899 80 25ft 13kts
01-Sep-18 13:33 32.733964 -117.195657 106 26ft 26kts
01-Sep-18 13:34 32.731408 -117.184968 106 23ft 41kts
01-Sep-18 13:35 32.729833 -117.178593 105 23ft 7kts
01-Sep-18 13:36 32.729536 -117.176658 75 23ft 6kts
01-Sep-18 13:37 32.731686 -117.182018 286 23ft 117kts
01-Sep-18 13:38 32.762691 -117.244632 300 3170ft 269kts
01-Sep-18 13:39 32.801584 -117.319039 302 8799ft 261kts
01-Sep-18 13:40 32.844595 -117.387453 305 10005ft 261kts
01-Sep-18 13:41 32.885593 -117.451603 305 10011ft 262kts
01-Sep-18 13:42 32.929785 -117.520501 305 10012ft 262kts
01-Sep-18 13:43 32.974032 -117.589497 305 10014ft 263kts
01-Sep-18 13:44 33.018348 -117.658741 305 10015ft 265kts
01-Sep-18 13:45 33.063703 -117.728599 312 10014ft 268kts
01-Sep-18 13:46 33.115929 -117.782543 318 10015ft 272kts
01-Sep-18 13:47 33.171364 -117.839002 318 10015ft 272kts
01-Sep-18 13:49 33.239777 -117.873245 346 10017ft 276kts
01-Sep-18 13:50 33.315843 -117.892235 346 10016ft 280kts
01-Sep-18 13:51 33.374853 -117.944562 288 10008ft 278kts
01-Sep-18 13:52 33.371981 -118.036582 264 10013ft 281kts
01-Sep-18 13:53 33.362808 -118.129514 264 10023ft 282kts
01-Sep-18 13:54 33.353642 -118.222984 265 10034ft 284kts
01-Sep-18 13:55 33.361512 -118.315710 280 10041ft 282kts
01-Sep-18 13:56 33.374013 -118.408601 287 10041ft 282kts
01-Sep-18 13:57 33.419542 -118.482994 311 10042ft 279kts
01-Sep-18 13:58 33.469519 -118.554292 311 10042ft 279kts
01-Sep-18 13:59 33.519387 -118.625496 311 10042ft 279kts
01-Sep-18 14:00 33.568631 -118.695928 310 10042ft 279kts
01-Sep-18 14:01 33.618470 -118.767342 310 10038ft 280kts
01-Sep-18 14:02 33.668233 -118.838786 311 10021ft 280kts
01-Sep-18 14:03 33.717306 -118.909388 308 10007ft 267kts
01-Sep-18 14:04 33.764582 -118.977526 308 9999ft 264kts
01-Sep-18 14:05 33.825546 -119.019052 351 9998ft 271kts
01-Sep-18 14:06 33.900499 -119.026883 351 9819ft 270kts
01-Sep-18 14:07 33.975821 -119.034836 350 9059ft 272kts
01-Sep-18 14:08 34.050921 -119.042736 350 9033ft 273kts
01-Sep-18 14:09 34.120431 -119.064310 307 8939ft 260kts
01-Sep-18 14:10 34.152947 -119.139273 294 7837ft 257kts
01-Sep-18 14:11 34.182561 -119.210276 293 6452ft 218kts
01-Sep-18 14:12 34.209661 -119.275233 293 6036ft 216kts
01-Sep-18 14:13 34.235894 -119.338098 294 6025ft 207kts
01-Sep-18 14:14 34.261750 -119.400168 294 6027ft 206kts
01-Sep-18 14:14 34.281932 -119.450544 293 5817ft 194kts
01-Sep-18 14:15 34.304989 -119.506943 293 4669ft 172kts
01-Sep-18 14:17 34.330632 -119.568563 293 3788ft 176kts
01-Sep-18 14:18 34.352352 -119.621660 293 3030ft 179kts
01-Sep-18 14:18 34.371322 -119.663634 307 2950ft 170kts
01-Sep-18 14:19 34.402324 -119.701418 311 2358ft 147kts
01-Sep-18 14:20 34.425205 -119.738849 286 1513ft 131kts
01-Sep-18 14:21 34.429198 -119.779754 265 1305ft 121kts
01-Sep-18 14:22 34.428207 -119.819992 265 379ft 121kts
01-Sep-18 14:23 34.427034 -119.846327 188 19ft 14kts
01-Sep-18 14:24 34.426702 -119.846179 133 19ft 0kts
01-Sep-18 14:25 34.426702 -119.846179 133 19ft 0kts
01-Sep-18 14:26 34.426594 -119.843595 88 19ft 16kts
01-Sep-18 14:27 34.425829 -119.838093 166 19ft 16kts
01-Sep-18 14:28 34.424045 -119.836908 81 19ft 0kts
01-Sep-18 14:29 34.424045 -119.836908 81 19ft 0kts
01-Sep-18 14:30 34.424045 -119.836908 81 19ft 0kts
01-Sep-18 14:31 34.424045 -119.836908 81 19ft 0kts
01-Sep-18 14:32 34.424045 -119.836908 81 19ft 0kts
01-Sep-18 14:33 34.424045 -119.836908 81 19ft 0kts
01-Sep-18 14:34 34.424045 -119.836908 81 19ft 0kts
01-Sep-18 14:35 34.424045 -119.836908 81 19ft 0kts
01-Sep-18 14:36 34.424045 -119.836908 81 19ft 0kts
01-Sep-18 14:37 34.424045 -119.836908 81 19ft 0kts

Navigation Log

Ident Type
Flight plan parsing failed, navigation log unavailable